sensor_id;sensor_type;location;lat;lon;timestamp;temperature;humidity
75994;DHT22;64680;53.800;9.988;2023-11-21T00:01:57;6.70;99.90
75994;DHT22;64680;53.800;9.988;2023-11-21T00:04:24;6.70;99.90
75994;DHT22;64680;53.800;9.988;2023-11-21T00:06:50;6.70;99.90
75994;DHT22;64680;53.800;9.988;2023-11-21T00:09:16;6.70;99.90
75994;DHT22;64680;53.800;9.988;2023-11-21T00:11:43;6.70;99.90
75994;DHT22;64680;53.800;9.988;2023-11-21T00:14:10;6.70;99.90
75994;DHT22;64680;53.800;9.988;2023-11-21T00:16:36;6.70;99.90
75994;DHT22;64680;53.800;9.988;2023-11-21T00:19:02;6.60;99.90
75994;DHT22;64680;53.800;9.988;2023-11-21T00:21:27;6.60;99.90
75994;DHT22;64680;53.800;9.988;2023-11-21T00:23:53;6.60;99.90
75994;DHT22;64680;53.800;9.988;2023-11-21T00:26:18;6.50;99.90
75994;DHT22;64680;53.800;9.988;2023-11-21T00:28:44;6.50;99.90
75994;DHT22;64680;53.800;9.988;2023-11-21T00:31:10;6.50;99.90
75994;DHT22;64680;53.800;9.988;2023-11-21T00:33:36;6.40;99.90
75994;DHT22;64680;53.800;9.988;2023-11-21T00:36:02;6.40;99.90
75994;DHT22;64680;53.800;9.988;2023-11-21T00:38:27;6.40;99.90
75994;DHT22;64680;53.800;9.988;2023-11-21T00:40:53;6.30;99.90
75994;DHT22;64680;53.800;9.988;2023-11-21T00:43:22;6.30;99.90
75994;DHT22;64680;53.800;9.988;2023-11-21T00:45:48;6.30;99.90
75994;DHT22;64680;53.800;9.988;2023-11-21T00:48:14;6.30;99.90
75994;DHT22;64680;53.800;9.988;2023-11-21T00:50:40;6.30;99.90
75994;DHT22;64680;53.800;9.988;2023-11-21T00:53:06;6.30;99.90
75994;DHT22;64680;53.800;9.988;2023-11-21T00:55:33;6.20;99.90
75994;DHT22;64680;53.800;9.988;2023-11-21T00:57:58;6.20;99.90
75994;DHT22;64680;53.800;9.988;2023-11-21T01:00:25;6.20;99.90
75994;DHT22;64680;53.800;9.988;2023-11-21T01:02:51;6.20;99.90
75994;DHT22;64680;53.800;9.988;2023-11-21T01:05:17;6.20;99.90
75994;DHT22;64680;53.800;9.988;2023-11-21T01:07:43;6.10;98.90
75994;DHT22;64680;53.800;9.988;2023-11-21T01:10:08;6.20;99.20
75994;DHT22;64680;53.800;9.988;2023-11-21T01:12:36;6.20;98.50
75994;DHT22;64680;53.800;9.988;2023-11-21T01:15:04;6.20;98.00
75994;DHT22;64680;53.800;9.988;2023-11-21T01:17:32;6.10;97.80
75994;DHT22;64680;53.800;9.988;2023-11-21T01:19:59;6.10;97.20
75994;DHT22;64680;53.800;9.988;2023-11-21T01:22:25;6.10;98.20
75994;DHT22;64680;53.800;9.988;2023-11-21T01:24:54;6.10;97.70
75994;DHT22;64680;53.800;9.988;2023-11-21T01:27:20;6.10;97.60
75994;DHT22;64680;53.800;9.988;2023-11-21T01:29:45;6.10;96.30
75994;DHT22;64680;53.800;9.988;2023-11-21T01:32:11;6.00;96.00
75994;DHT22;64680;53.800;9.988;2023-11-21T01:34:37;6.00;95.10
75994;DHT22;64680;53.800;9.988;2023-11-21T01:37:03;6.00;95.00
75994;DHT22;64680;53.800;9.988;2023-11-21T01:39:31;6.00;94.40
75994;DHT22;64680;53.800;9.988;2023-11-21T01:41:57;5.90;93.80
75994;DHT22;64680;53.800;9.988;2023-11-21T01:44:26;5.90;94.10
75994;DHT22;64680;53.800;9.988;2023-11-21T01:46:52;5.90;94.80
75994;DHT22;64680;53.800;9.988;2023-11-21T01:49:19;5.90;94.50
75994;DHT22;64680;53.800;9.988;2023-11-21T01:51:47;5.90;93.90
75994;DHT22;64680;53.800;9.988;2023-11-21T01:54:15;5.80;94.00
75994;DHT22;64680;53.800;9.988;2023-11-21T01:56:43;5.80;93.90
75994;DHT22;64680;53.800;9.988;2023-11-21T01:59:10;5.80;94.00
75994;DHT22;64680;53.800;9.988;2023-11-21T02:01:37;5.80;93.50
75994;DHT22;64680;53.800;9.988;2023-11-21T02:04:03;5.80;92.70
75994;DHT22;64680;53.800;9.988;2023-11-21T02:06:28;5.80;92.40
75994;DHT22;64680;53.800;9.988;2023-11-21T02:08:56;5.80;92.70
75994;DHT22;64680;53.800;9.988;2023-11-21T02:11:22;5.80;92.60
75994;DHT22;64680;53.800;9.988;2023-11-21T02:13:47;5.80;92.50
75994;DHT22;64680;53.800;9.988;2023-11-21T02:16:15;5.80;92.60
75994;DHT22;64680;53.800;9.988;2023-11-21T02:18:41;5.80;93.30
75994;DHT22;64680;53.800;9.988;2023-11-21T02:21:07;5.80;91.70
75994;DHT22;64680;53.800;9.988;2023-11-21T02:23:33;5.70;91.60
75994;DHT22;64680;53.800;9.988;2023-11-21T02:25:58;5.70;89.70
75994;DHT22;64680;53.800;9.988;2023-11-21T02:28:24;5.70;89.10
75994;DHT22;64680;53.800;9.988;2023-11-21T02:30:54;5.70;89.30
75994;DHT22;64680;53.800;9.988;2023-11-21T02:33:22;5.70;90.10
75994;DHT22;64680;53.800;9.988;2023-11-21T02:35:48;5.70;89.40
75994;DHT22;64680;53.800;9.988;2023-11-21T02:38:13;5.70;89.80
75994;DHT22;64680;53.800;9.988;2023-11-21T02:40:41;5.70;89.80
75994;DHT22;64680;53.800;9.988;2023-11-21T02:43:07;5.70;90.50
75994;DHT22;64680;53.800;9.988;2023-11-21T02:45:32;5.70;90.20
75994;DHT22;64680;53.800;9.988;2023-11-21T02:47:58;5.70;89.90
75994;DHT22;64680;53.800;9.988;2023-11-21T02:50:24;5.70;90.50
75994;DHT22;64680;53.800;9.988;2023-11-21T02:52:50;5.70;89.60
75994;DHT22;64680;53.800;9.988;2023-11-21T02:55:16;5.70;89.30
75994;DHT22;64680;53.800;9.988;2023-11-21T02:57:42;5.60;87.60
75994;DHT22;64680;53.800;9.988;2023-11-21T03:00:08;5.60;87.00
75994;DHT22;64680;53.800;9.988;2023-11-21T03:02:35;5.60;87.00
75994;DHT22;64680;53.800;9.988;2023-11-21T03:05:05;5.50;87.30
75994;DHT22;64680;53.800;9.988;2023-11-21T03:07:31;5.50;87.70
75994;DHT22;64680;53.800;9.988;2023-11-21T03:09:57;5.50;86.40
75994;DHT22;64680;53.800;9.988;2023-11-21T03:12:23;5.50;86.10
75994;DHT22;64680;53.800;9.988;2023-11-21T03:14:48;5.50;85.70
75994;DHT22;64680;53.800;9.988;2023-11-21T03:17:14;5.50;85.50
75994;DHT22;64680;53.800;9.988;2023-11-21T03:19:41;5.50;84.50
75994;DHT22;64680;53.800;9.988;2023-11-21T03:22:07;5.50;82.30
75994;DHT22;64680;53.800;9.988;2023-11-21T03:24:34;5.50;81.40
75994;DHT22;64680;53.800;9.988;2023-11-21T03:26:59;5.60;81.80
75994;DHT22;64680;53.800;9.988;2023-11-21T03:29:25;5.60;81.80
75994;DHT22;64680;53.800;9.988;2023-11-21T03:31:51;5.60;81.20
75994;DHT22;64680;53.800;9.988;2023-11-21T03:34:24;5.60;80.70
75994;DHT22;64680;53.800;9.988;2023-11-21T03:36:51;5.60;80.50
75994;DHT22;64680;53.800;9.988;2023-11-21T03:39:16;5.60;79.30
75994;DHT22;64680;53.800;9.988;2023-11-21T03:41:42;5.60;79.30
75994;DHT22;64680;53.800;9.988;2023-11-21T03:44:07;5.60;79.50
75994;DHT22;64680;53.800;9.988;2023-11-21T03:46:33;5.60;79.50
75994;DHT22;64680;53.800;9.988;2023-11-21T03:48:59;5.60;79.10
75994;DHT22;64680;53.800;9.988;2023-11-21T03:51:25;5.60;77.50
75994;DHT22;64680;53.800;9.988;2023-11-21T03:53:50;5.60;76.20
75994;DHT22;64680;53.800;9.988;2023-11-21T03:56:16;5.60;75.80
75994;DHT22;64680;53.800;9.988;2023-11-21T03:58:41;5.60;75.00
75994;DHT22;64680;53.800;9.988;2023-11-21T04:01:07;5.60;74.50
75994;DHT22;64680;53.800;9.988;2023-11-21T04:03:33;5.60;74.50
75994;DHT22;64680;53.800;9.988;2023-11-21T04:05:58;5.60;74.20
75994;DHT22;64680;53.800;9.988;2023-11-21T04:08:24;5.70;75.70
75994;DHT22;64680;53.800;9.988;2023-11-21T04:10:52;5.60;74.90
75994;DHT22;64680;53.800;9.988;2023-11-21T04:13:19;5.60;73.20
75994;DHT22;64680;53.800;9.988;2023-11-21T04:15:44;5.60;73.00
75994;DHT22;64680;53.800;9.988;2023-11-21T04:18:10;5.60;74.10
75994;DHT22;64680;53.800;9.988;2023-11-21T04:20:35;5.60;75.20
75994;DHT22;64680;53.800;9.988;2023-11-21T04:23:01;5.60;74.70
75994;DHT22;64680;53.800;9.988;2023-11-21T04:25:27;5.60;74.70
75994;DHT22;64680;53.800;9.988;2023-11-21T04:27:53;5.60;75.00
75994;DHT22;64680;53.800;9.988;2023-11-21T04:30:19;5.60;73.00
75994;DHT22;64680;53.800;9.988;2023-11-21T04:32:46;5.60;72.20
75994;DHT22;64680;53.800;9.988;2023-11-21T04:35:11;5.60;70.20
75994;DHT22;64680;53.800;9.988;2023-11-21T04:37:37;5.60;69.50
75994;DHT22;64680;53.800;9.988;2023-11-21T04:40:03;5.60;69.70
75994;DHT22;64680;53.800;9.988;2023-11-21T04:42:35;5.60;69.80
75994;DHT22;64680;53.800;9.988;2023-11-21T04:45:01;5.60;70.10
75994;DHT22;64680;53.800;9.988;2023-11-21T04:47:30;5.60;70.30
75994;DHT22;64680;53.800;9.988;2023-11-21T04:49:56;5.60;70.80
75994;DHT22;64680;53.800;9.988;2023-11-21T04:52:21;5.60;71.40
75994;DHT22;64680;53.800;9.988;2023-11-21T04:54:47;5.60;72.60
75994;DHT22;64680;53.800;9.988;2023-11-21T04:57:13;5.60;72.40
75994;DHT22;64680;53.800;9.988;2023-11-21T04:59:39;5.60;74.50
75994;DHT22;64680;53.800;9.988;2023-11-21T05:02:05;5.60;75.40
75994;DHT22;64680;53.800;9.988;2023-11-21T05:04:30;5.60;77.00
75994;DHT22;64680;53.800;9.988;2023-11-21T05:06:56;5.60;78.80
75994;DHT22;64680;53.800;9.988;2023-11-21T05:09:22;5.60;80.50
75994;DHT22;64680;53.800;9.988;2023-11-21T05:11:47;5.60;82.20
75994;DHT22;64680;53.800;9.988;2023-11-21T05:14:13;5.60;83.90
75994;DHT22;64680;53.800;9.988;2023-11-21T05:16:39;5.60;85.10
75994;DHT22;64680;53.800;9.988;2023-11-21T05:19:05;5.70;85.90
75994;DHT22;64680;53.800;9.988;2023-11-21T05:21:31;5.60;87.00
75994;DHT22;64680;53.800;9.988;2023-11-21T05:23:58;5.70;88.10
75994;DHT22;64680;53.800;9.988;2023-11-21T05:26:23;5.70;88.50
75994;DHT22;64680;53.800;9.988;2023-11-21T05:28:49;5.70;89.60
75994;DHT22;64680;53.800;9.988;2023-11-21T05:31:15;5.70;89.60
75994;DHT22;64680;53.800;9.988;2023-11-21T05:33:41;5.70;90.20
75994;DHT22;64680;53.800;9.988;2023-11-21T05:36:07;5.70;90.70
75994;DHT22;64680;53.800;9.988;2023-11-21T05:38:33;5.70;90.70
75994;DHT22;64680;53.800;9.988;2023-11-21T05:40:59;5.70;91.00
75994;DHT22;64680;53.800;9.988;2023-11-21T05:43:24;5.70;91.30
75994;DHT22;64680;53.800;9.988;2023-11-21T05:45:50;5.70;91.50
75994;DHT22;64680;53.800;9.988;2023-11-21T05:48:16;5.70;91.50
75994;DHT22;64680;53.800;9.988;2023-11-21T05:50:41;5.80;91.30
75994;DHT22;64680;53.800;9.988;2023-11-21T05:53:07;5.70;91.30
75994;DHT22;64680;53.800;9.988;2023-11-21T05:55:32;5.70;91.20
75994;DHT22;64680;53.800;9.988;2023-11-21T05:57:58;5.70;90.10
75994;DHT22;64680;53.800;9.988;2023-11-21T06:00:24;5.70;90.40
75994;DHT22;64680;53.800;9.988;2023-11-21T06:02:52;5.70;90.00
75994;DHT22;64680;53.800;9.988;2023-11-21T06:05:19;5.70;90.10
75994;DHT22;64680;53.800;9.988;2023-11-21T06:07:45;5.70;89.60
75994;DHT22;64680;53.800;9.988;2023-11-21T06:10:11;5.70;90.00
75994;DHT22;64680;53.800;9.988;2023-11-21T06:12:40;5.70;89.30
75994;DHT22;64680;53.800;9.988;2023-11-21T06:15:08;5.70;89.20
75994;DHT22;64680;53.800;9.988;2023-11-21T06:17:35;5.70;88.80
75994;DHT22;64680;53.800;9.988;2023-11-21T06:20:05;5.70;88.70
75994;DHT22;64680;53.800;9.988;2023-11-21T06:22:36;5.70;88.40
75994;DHT22;64680;53.800;9.988;2023-11-21T06:25:01;5.70;88.60
75994;DHT22;64680;53.800;9.988;2023-11-21T06:27:28;5.70;87.70
75994;DHT22;64680;53.800;9.988;2023-11-21T06:29:55;5.70;87.10
75994;DHT22;64680;53.800;9.988;2023-11-21T06:32:20;5.70;86.50
75994;DHT22;64680;53.800;9.988;2023-11-21T06:34:48;5.70;86.10
75994;DHT22;64680;53.800;9.988;2023-11-21T06:37:15;5.70;85.90
75994;DHT22;64680;53.800;9.988;2023-11-21T06:39:40;5.70;86.10
75994;DHT22;64680;53.800;9.988;2023-11-21T06:42:06;5.70;85.30
75994;DHT22;64680;53.800;9.988;2023-11-21T06:44:32;5.70;85.40
75994;DHT22;64680;53.800;9.988;2023-11-21T06:46:59;5.70;85.40
75994;DHT22;64680;53.800;9.988;2023-11-21T06:49:24;5.70;84.50
75994;DHT22;64680;53.800;9.988;2023-11-21T06:51:51;5.70;83.90
75994;DHT22;64680;53.800;9.988;2023-11-21T06:54:16;5.70;84.20
75994;DHT22;64680;53.800;9.988;2023-11-21T06:56:42;5.60;83.90
75994;DHT22;64680;53.800;9.988;2023-11-21T06:59:07;5.70;82.70
75994;DHT22;64680;53.800;9.988;2023-11-21T07:01:35;5.70;82.70
75994;DHT22;64680;53.800;9.988;2023-11-21T07:04:05;5.70;83.00
75994;DHT22;64680;53.800;9.988;2023-11-21T07:06:31;5.70;83.30
75994;DHT22;64680;53.800;9.988;2023-11-21T07:08:57;5.70;83.10
75994;DHT22;64680;53.800;9.988;2023-11-21T07:11:24;5.60;83.30
75994;DHT22;64680;53.800;9.988;2023-11-21T07:13:49;5.70;83.80
75994;DHT22;64680;53.800;9.988;2023-11-21T07:16:15;5.70;83.80
75994;DHT22;64680;53.800;9.988;2023-11-21T07:18:41;5.70;83.90
75994;DHT22;64680;53.800;9.988;2023-11-21T07:21:06;5.70;83.10
75994;DHT22;64680;53.800;9.988;2023-11-21T07:23:33;5.70;82.80
75994;DHT22;64680;53.800;9.988;2023-11-21T07:25:59;5.70;83.90
75994;DHT22;64680;53.800;9.988;2023-11-21T07:28:25;5.60;83.90
75994;DHT22;64680;53.800;9.988;2023-11-21T07:30:51;5.70;84.70
75994;DHT22;64680;53.800;9.988;2023-11-21T07:33:17;5.70;83.90
75994;DHT22;64680;53.800;9.988;2023-11-21T07:35:43;5.60;84.60
75994;DHT22;64680;53.800;9.988;2023-11-21T07:38:08;5.60;85.40
75994;DHT22;64680;53.800;9.988;2023-11-21T07:40:34;5.60;85.60
75994;DHT22;64680;53.800;9.988;2023-11-21T07:43:00;5.60;86.10
75994;DHT22;64680;53.800;9.988;2023-11-21T07:45:25;5.60;86.00
75994;DHT22;64680;53.800;9.988;2023-11-21T07:47:53;5.60;85.90
75994;DHT22;64680;53.800;9.988;2023-11-21T07:50:19;5.60;85.40
75994;DHT22;64680;53.800;9.988;2023-11-21T07:52:46;5.60;85.60
75994;DHT22;64680;53.800;9.988;2023-11-21T07:55:11;5.60;86.00
75994;DHT22;64680;53.800;9.988;2023-11-21T07:57:37;5.60;85.60
75994;DHT22;64680;53.800;9.988;2023-11-21T08:00:04;5.60;84.90
75994;DHT22;64680;53.800;9.988;2023-11-21T08:02:34;5.70;84.60
75994;DHT22;64680;53.800;9.988;2023-11-21T08:05:00;5.70;83.60
75994;DHT22;64680;53.800;9.988;2023-11-21T08:07:26;5.70;82.50
75994;DHT22;64680;53.800;9.988;2023-11-21T08:09:51;5.70;76.70
75994;DHT22;64680;53.800;9.988;2023-11-21T08:12:18;5.70;76.20
75994;DHT22;64680;53.800;9.988;2023-11-21T08:14:43;5.80;76.40
75994;DHT22;64680;53.800;9.988;2023-11-21T08:17:10;5.80;76.30
75994;DHT22;64680;53.800;9.988;2023-11-21T08:19:36;5.90;75.70
75994;DHT22;64680;53.800;9.988;2023-11-21T08:22:03;5.90;75.70
75994;DHT22;64680;53.800;9.988;2023-11-21T08:24:28;5.90;74.40
75994;DHT22;64680;53.800;9.988;2023-11-21T08:26:54;5.90;72.20
75994;DHT22;64680;53.800;9.988;2023-11-21T08:29:20;5.90;71.00
75994;DHT22;64680;53.800;9.988;2023-11-21T08:31:46;5.90;70.70
75994;DHT22;64680;53.800;9.988;2023-11-21T08:34:12;5.90;69.10
75994;DHT22;64680;53.800;9.988;2023-11-21T08:36:42;5.90;69.10
75994;DHT22;64680;53.800;9.988;2023-11-21T08:39:08;5.90;69.20
75994;DHT22;64680;53.800;9.988;2023-11-21T08:41:35;5.90;70.10
75994;DHT22;64680;53.800;9.988;2023-11-21T08:44:02;5.90;70.10
75994;DHT22;64680;53.800;9.988;2023-11-21T08:46:27;6.00;67.80
75994;DHT22;64680;53.800;9.988;2023-11-21T08:48:53;6.00;66.10
75994;DHT22;64680;53.800;9.988;2023-11-21T08:51:18;6.00;65.50
75994;DHT22;64680;53.800;9.988;2023-11-21T08:53:44;6.00;64.50
75994;DHT22;64680;53.800;9.988;2023-11-21T08:56:13;6.00;64.60
75994;DHT22;64680;53.800;9.988;2023-11-21T08:58:42;6.00;59.30
75994;DHT22;64680;53.800;9.988;2023-11-21T09:01:07;6.10;59.00
75994;DHT22;64680;53.800;9.988;2023-11-21T09:03:33;6.10;58.40
75994;DHT22;64680;53.800;9.988;2023-11-21T09:06:00;6.10;56.60
75994;DHT22;64680;53.800;9.988;2023-11-21T09:08:25;6.10;56.80
75994;DHT22;64680;53.800;9.988;2023-11-21T09:10:51;6.10;56.20
75994;DHT22;64680;53.800;9.988;2023-11-21T09:13:17;6.10;56.00
75994;DHT22;64680;53.800;9.988;2023-11-21T09:15:43;6.10;58.10
75994;DHT22;64680;53.800;9.988;2023-11-21T09:18:14;6.00;59.10
75994;DHT22;64680;53.800;9.988;2023-11-21T09:20:41;6.00;59.40
75994;DHT22;64680;53.800;9.988;2023-11-21T09:23:08;6.00;59.70
75994;DHT22;64680;53.800;9.988;2023-11-21T09:25:33;6.00;58.30
75994;DHT22;64680;53.800;9.988;2023-11-21T09:27:59;6.00;59.00
75994;DHT22;64680;53.800;9.988;2023-11-21T09:30:25;6.00;59.30
75994;DHT22;64680;53.800;9.988;2023-11-21T09:32:51;6.10;59.20
75994;DHT22;64680;53.800;9.988;2023-11-21T09:35:17;6.10;59.00
75994;DHT22;64680;53.800;9.988;2023-11-21T09:37:46;6.10;61.90
75994;DHT22;64680;53.800;9.988;2023-11-21T09:40:12;6.20;65.40
75994;DHT22;64680;53.800;9.988;2023-11-21T09:42:55;6.10;65.60
75994;DHT22;64680;53.800;9.988;2023-11-21T09:45:27;6.00;60.00
75994;DHT22;64680;53.800;9.988;2023-11-21T09:47:57;6.00;62.00
75994;DHT22;64680;53.800;9.988;2023-11-21T09:50:23;6.00;62.40
75994;DHT22;64680;53.800;9.988;2023-11-21T09:52:58;6.00;65.30
75994;DHT22;64680;53.800;9.988;2023-11-21T09:55:28;6.00;65.80
75994;DHT22;64680;53.800;9.988;2023-11-21T09:58:03;6.00;68.70
75994;DHT22;64680;53.800;9.988;2023-11-21T10:00:30;6.10;70.90
75994;DHT22;64680;53.800;9.988;2023-11-21T10:02:58;6.10;70.50
75994;DHT22;64680;53.800;9.988;2023-11-21T10:05:25;6.10;69.80
75994;DHT22;64680;53.800;9.988;2023-11-21T10:07:51;6.00;70.40
75994;DHT22;64680;53.800;9.988;2023-11-21T10:10:18;6.00;72.60
75994;DHT22;64680;53.800;9.988;2023-11-21T10:12:52;6.00;74.80
75994;DHT22;64680;53.800;9.988;2023-11-21T10:15:24;6.00;75.50
75994;DHT22;64680;53.800;9.988;2023-11-21T10:17:54;5.90;76.80
75994;DHT22;64680;53.800;9.988;2023-11-21T10:20:20;5.80;77.60
75994;DHT22;64680;53.800;9.988;2023-11-21T10:22:47;5.80;77.80
75994;DHT22;64680;53.800;9.988;2023-11-21T10:25:13;5.70;79.40
75994;DHT22;64680;53.800;9.988;2023-11-21T10:27:47;5.70;81.40
75994;DHT22;64680;53.800;9.988;2023-11-21T10:30:13;5.60;82.70
75994;DHT22;64680;53.800;9.988;2023-11-21T10:32:41;5.60;84.60
75994;DHT22;64680;53.800;9.988;2023-11-21T10:35:09;5.60;85.90
75994;DHT22;64680;53.800;9.988;2023-11-21T10:37:38;5.50;87.30
75994;DHT22;64680;53.800;9.988;2023-11-21T10:40:09;5.50;89.00
75994;DHT22;64680;53.800;9.988;2023-11-21T10:42:38;5.50;90.00
75994;DHT22;64680;53.800;9.988;2023-11-21T10:45:05;5.50;90.90
75994;DHT22;64680;53.800;9.988;2023-11-21T10:47:39;5.40;92.10
75994;DHT22;64680;53.800;9.988;2023-11-21T10:50:05;5.50;93.80
75994;DHT22;64680;53.800;9.988;2023-11-21T10:52:31;5.60;95.50
75994;DHT22;64680;53.800;9.988;2023-11-21T10:54:56;5.60;96.20
75994;DHT22;64680;53.800;9.988;2023-11-21T10:57:25;5.70;96.50
75994;DHT22;64680;53.800;9.988;2023-11-21T10:59:54;5.80;97.60
75994;DHT22;64680;53.800;9.988;2023-11-21T11:02:24;5.80;97.50
75994;DHT22;64680;53.800;9.988;2023-11-21T11:04:54;5.90;97.60
75994;DHT22;64680;53.800;9.988;2023-11-21T11:07:26;5.90;96.70
75994;DHT22;64680;53.800;9.988;2023-11-21T11:09:54;5.80;96.40
75994;DHT22;64680;53.800;9.988;2023-11-21T11:12:20;5.80;96.10
75994;DHT22;64680;53.800;9.988;2023-11-21T11:14:46;5.80;96.10
75994;DHT22;64680;53.800;9.988;2023-11-21T11:17:13;5.60;91.00
75994;DHT22;64680;53.800;9.988;2023-11-21T11:19:39;5.50;89.80
75994;DHT22;64680;53.800;9.988;2023-11-21T11:22:36;5.40;90.10
75994;DHT22;64680;53.800;9.988;2023-11-21T11:26:12;5.30;89.60
75994;DHT22;64680;53.800;9.988;2023-11-21T11:28:15;5.20;90.30
75994;DHT22;64680;53.800;9.988;2023-11-21T11:38:58;5.00;90.20
75994;DHT22;64680;53.800;9.988;2023-11-21T11:41:30;5.00;91.50
75994;DHT22;64680;53.800;9.988;2023-11-21T11:43:58;5.00;92.50
75994;DHT22;64680;53.800;9.988;2023-11-21T11:46:44;5.00;93.00
75994;DHT22;64680;53.800;9.988;2023-11-21T11:49:27;5.00;93.50
75994;DHT22;64680;53.800;9.988;2023-11-21T11:55:01;5.00;94.30
75994;DHT22;64680;53.800;9.988;2023-11-21T11:57:30;5.00;93.80
75994;DHT22;64680;53.800;9.988;2023-11-21T12:00:17;5.00;94.30
75994;DHT22;64680;53.800;9.988;2023-11-21T12:02:45;4.90;92.90
75994;DHT22;64680;53.800;9.988;2023-11-21T12:05:17;5.00;93.00
75994;DHT22;64680;53.800;9.988;2023-11-21T12:07:47;5.00;93.50
75994;DHT22;64680;53.800;9.988;2023-11-21T12:10:18;5.00;93.90
75994;DHT22;64680;53.800;9.988;2023-11-21T12:12:46;5.00;94.80
75994;DHT22;64680;53.800;9.988;2023-11-21T12:15:12;5.10;95.50
75994;DHT22;64680;53.800;9.988;2023-11-21T12:17:39;5.00;94.80
75994;DHT22;64680;53.800;9.988;2023-11-21T12:20:05;5.00;95.60
75994;DHT22;64680;53.800;9.988;2023-11-21T12:22:43;5.10;97.20
75994;DHT22;64680;53.800;9.988;2023-11-21T12:25:09;5.10;97.30
75994;DHT22;64680;53.800;9.988;2023-11-21T12:27:34;5.10;97.50
75994;DHT22;64680;53.800;9.988;2023-11-21T12:30:00;5.20;98.00
75994;DHT22;64680;53.800;9.988;2023-11-21T12:32:26;5.10;98.20
75994;DHT22;64680;53.800;9.988;2023-11-21T12:34:52;5.10;98.10
75994;DHT22;64680;53.800;9.988;2023-11-21T12:37:18;5.10;98.60
75994;DHT22;64680;53.800;9.988;2023-11-21T12:39:43;5.10;98.60
75994;DHT22;64680;53.800;9.988;2023-11-21T12:42:09;5.10;99.20
75994;DHT22;64680;53.800;9.988;2023-11-21T12:44:35;5.10;98.30
75994;DHT22;64680;53.800;9.988;2023-11-21T12:47:02;5.00;97.50
75994;DHT22;64680;53.800;9.988;2023-11-21T12:49:28;5.00;96.70
75994;DHT22;64680;53.800;9.988;2023-11-21T12:51:54;4.90;96.00
75994;DHT22;64680;53.800;9.988;2023-11-21T12:54:20;5.00;96.30
75994;DHT22;64680;53.800;9.988;2023-11-21T12:56:46;5.00;95.50
75994;DHT22;64680;53.800;9.988;2023-11-21T12:59:14;4.90;94.30
75994;DHT22;64680;53.800;9.988;2023-11-21T13:01:42;4.90;93.80
75994;DHT22;64680;53.800;9.988;2023-11-21T13:04:08;4.90;93.20
75994;DHT22;64680;53.800;9.988;2023-11-21T13:06:36;4.90;92.60
75994;DHT22;64680;53.800;9.988;2023-11-21T13:09:07;4.90;93.20
75994;DHT22;64680;53.800;9.988;2023-11-21T13:11:36;4.90;92.30
75994;DHT22;64680;53.800;9.988;2023-11-21T13:14:02;5.00;92.20
75994;DHT22;64680;53.800;9.988;2023-11-21T13:16:29;5.00;91.00
75994;DHT22;64680;53.800;9.988;2023-11-21T13:18:55;4.90;87.50
75994;DHT22;64680;53.800;9.988;2023-11-21T13:21:21;4.90;88.50
75994;DHT22;64680;53.800;9.988;2023-11-21T13:23:48;4.90;87.70
75994;DHT22;64680;53.800;9.988;2023-11-21T13:26:16;4.90;88.40
75994;DHT22;64680;53.800;9.988;2023-11-21T13:28:42;4.80;89.00
75994;DHT22;64680;53.800;9.988;2023-11-21T13:31:11;4.80;90.10
75994;DHT22;64680;53.800;9.988;2023-11-21T13:33:49;4.80;88.50
75994;DHT22;64680;53.800;9.988;2023-11-21T13:36:23;4.80;87.00
75994;DHT22;64680;53.800;9.988;2023-11-21T13:38:50;4.70;87.70
75994;DHT22;64680;53.800;9.988;2023-11-21T13:41:18;4.70;86.90
75994;DHT22;64680;53.800;9.988;2023-11-21T13:43:43;4.70;87.10
75994;DHT22;64680;53.800;9.988;2023-11-21T13:46:13;4.70;87.60
75994;DHT22;64680;53.800;9.988;2023-11-21T13:48:42;4.70;86.90
75994;DHT22;64680;53.800;9.988;2023-11-21T13:51:11;4.70;87.70
75994;DHT22;64680;53.800;9.988;2023-11-21T13:53:46;4.70;88.40
75994;DHT22;64680;53.800;9.988;2023-11-21T13:56:19;4.70;89.40
75994;DHT22;64680;53.800;9.988;2023-11-21T13:58:53;4.70;90.40
75994;DHT22;64680;53.800;9.988;2023-11-21T14:01:21;4.70;90.20
75994;DHT22;64680;53.800;9.988;2023-11-21T14:03:57;4.70;90.80
75994;DHT22;64680;53.800;9.988;2023-11-21T14:06:28;4.70;90.70
75994;DHT22;64680;53.800;9.988;2023-11-21T14:09:00;4.70;90.90
75994;DHT22;64680;53.800;9.988;2023-11-21T14:11:32;4.60;91.00
75994;DHT22;64680;53.800;9.988;2023-11-21T14:13:57;4.60;90.50
75994;DHT22;64680;53.800;9.988;2023-11-21T14:16:25;4.60;89.70
75994;DHT22;64680;53.800;9.988;2023-11-21T14:18:50;4.50;88.40
75994;DHT22;64680;53.800;9.988;2023-11-21T14:21:22;4.50;87.10
75994;DHT22;64680;53.800;9.988;2023-11-21T14:23:48;4.40;85.40
75994;DHT22;64680;53.800;9.988;2023-11-21T14:26:14;4.50;85.80
75994;DHT22;64680;53.800;9.988;2023-11-21T14:28:42;4.40;86.80
75994;DHT22;64680;53.800;9.988;2023-11-21T14:31:08;4.40;87.50
75994;DHT22;64680;53.800;9.988;2023-11-21T14:33:39;4.50;88.00
75994;DHT22;64680;53.800;9.988;2023-11-21T14:36:05;4.50;89.00
75994;DHT22;64680;53.800;9.988;2023-11-21T14:38:33;4.50;89.90
75994;DHT22;64680;53.800;9.988;2023-11-21T14:40:59;4.50;91.00
75994;DHT22;64680;53.800;9.988;2023-11-21T14:43:24;4.50;91.80
75994;DHT22;64680;53.800;9.988;2023-11-21T14:45:51;4.50;91.90
75994;DHT22;64680;53.800;9.988;2023-11-21T14:48:17;4.50;92.50
75994;DHT22;64680;53.800;9.988;2023-11-21T14:50:53;4.50;92.50
75994;DHT22;64680;53.800;9.988;2023-11-21T14:53:27;4.40;93.10
75994;DHT22;64680;53.800;9.988;2023-11-21T14:56:12;4.40;93.70
75994;DHT22;64680;53.800;9.988;2023-11-21T14:58:46;4.40;94.00
75994;DHT22;64680;53.800;9.988;2023-11-21T15:01:12;4.40;94.50
75994;DHT22;64680;53.800;9.988;2023-11-21T15:03:38;4.40;95.10
75994;DHT22;64680;53.800;9.988;2023-11-21T15:06:12;4.40;94.90
75994;DHT22;64680;53.800;9.988;2023-11-21T15:08:57;4.40;94.50
75994;DHT22;64680;53.800;9.988;2023-11-21T15:11:42;4.40;95.10
75994;DHT22;64680;53.800;9.988;2023-11-21T15:14:08;4.30;94.30
75994;DHT22;64680;53.800;9.988;2023-11-21T15:16:35;4.30;94.40
75994;DHT22;64680;53.800;9.988;2023-11-21T15:19:11;4.40;94.70
75994;DHT22;64680;53.800;9.988;2023-11-21T15:21:43;4.30;94.60
75994;DHT22;64680;53.800;9.988;2023-11-21T15:24:09;4.30;94.80
75994;DHT22;64680;53.800;9.988;2023-11-21T15:26:36;4.30;94.50
75994;DHT22;64680;53.800;9.988;2023-11-21T15:29:02;4.30;94.10
75994;DHT22;64680;53.800;9.988;2023-11-21T15:31:27;4.30;93.90
75994;DHT22;64680;53.800;9.988;2023-11-21T15:33:53;4.30;93.10
75994;DHT22;64680;53.800;9.988;2023-11-21T15:36:19;4.20;92.40
75994;DHT22;64680;53.800;9.988;2023-11-21T15:38:45;4.20;92.50
75994;DHT22;64680;53.800;9.988;2023-11-21T15:41:10;4.10;93.40
75994;DHT22;64680;53.800;9.988;2023-11-21T15:43:37;4.10;92.80
75994;DHT22;64680;53.800;9.988;2023-11-21T15:46:03;4.10;93.10
75994;DHT22;64680;53.800;9.988;2023-11-21T15:48:36;4.00;92.20
75994;DHT22;64680;53.800;9.988;2023-11-21T15:51:04;3.80;92.90
75994;DHT22;64680;53.800;9.988;2023-11-21T15:53:30;3.80;93.60
75994;DHT22;64680;53.800;9.988;2023-11-21T15:55:57;3.80;93.40
75994;DHT22;64680;53.800;9.988;2023-11-21T15:58:22;3.70;94.20